sensor_id;sensor_type;location;lat;lon;timestamp;pressure;altitude;pressure_sealevel;temperature;humidity
47763;BME280;33526;42.690;23.322;2023-03-14T00:02:07;95286.88;;;3.58;52.00
47763;BME280;33526;42.690;23.322;2023-03-14T00:04:33;95286.13;;;3.57;51.01
47763;BME280;33526;42.690;23.322;2023-03-14T00:06:58;95278.22;;;3.56;51.53
47763;BME280;33526;42.690;23.322;2023-03-14T00:09:23;95278.34;;;3.49;51.63
47763;BME280;33526;42.690;23.322;2023-03-14T00:11:49;95277.97;;;3.47;51.99
47763;BME280;33526;42.690;23.322;2023-03-14T00:14:14;95268.81;;;3.26;51.39
47763;BME280;33526;42.690;23.322;2023-03-14T00:16:40;95268.34;;;3.28;51.77
47763;BME280;33526;42.690;23.322;2023-03-14T00:19:06;95266.00;;;3.30;52.28
47763;BME280;33526;42.690;23.322;2023-03-14T00:21:31;95258.84;;;3.32;52.21
47763;BME280;33526;42.690;23.322;2023-03-14T00:23:56;95262.41;;;3.29;52.61
47763;BME280;33526;42.690;23.322;2023-03-14T00:26:22;95255.81;;;3.23;52.33
47763;BME280;33526;42.690;23.322;2023-03-14T00:28:50;95247.06;;;3.28;52.96
47763;BME280;33526;42.690;23.322;2023-03-14T00:31:16;95248.97;;;3.31;53.07
47763;BME280;33526;42.690;23.322;2023-03-14T00:33:42;95249.72;;;3.35;52.76
47763;BME280;33526;42.690;23.322;2023-03-14T00:36:09;95233.50;;;3.37;52.93
47763;BME280;33526;42.690;23.322;2023-03-14T00:38:35;95234.28;;;3.38;52.43
47763;BME280;33526;42.690;23.322;2023-03-14T00:41:07;95234.69;;;3.36;52.33
47763;BME280;33526;42.690;23.322;2023-03-14T00:43:32;95229.63;;;3.31;53.32
47763;BME280;33526;42.690;23.322;2023-03-14T00:45:58;95227.34;;;3.26;53.01
47763;BME280;33526;42.690;23.322;2023-03-14T00:48:23;95223.38;;;3.27;53.05
47763;BME280;33526;42.690;23.322;2023-03-14T00:50:49;95239.94;;;3.27;53.44
47763;BME280;33526;42.690;23.322;2023-03-14T00:53:14;95232.88;;;3.26;53.12
47763;BME280;33526;42.690;23.322;2023-03-14T00:55:40;95220.97;;;3.29;53.29
47763;BME280;33526;42.690;23.322;2023-03-14T00:58:07;95217.13;;;3.23;54.02
47763;BME280;33526;42.690;23.322;2023-03-14T01:00:32;95230.47;;;3.28;54.22
47763;BME280;33526;42.690;23.322;2023-03-14T01:02:58;95212.31;;;3.27;53.88
47763;BME280;33526;42.690;23.322;2023-03-14T01:05:23;95218.66;;;3.24;53.69
47763;BME280;33526;42.690;23.322;2023-03-14T01:07:48;95219.88;;;3.23;54.18
47763;BME280;33526;42.690;23.322;2023-03-14T01:10:14;95214.31;;;3.27;54.14
47763;BME280;33526;42.690;23.322;2023-03-14T01:12:39;95213.63;;;3.19;54.15
47763;BME280;33526;42.690;23.322;2023-03-14T01:15:05;95209.28;;;3.18;54.18
47763;BME280;33526;42.690;23.322;2023-03-14T01:17:30;95217.69;;;3.11;54.29
47763;BME280;33526;42.690;23.322;2023-03-14T01:19:56;95203.81;;;3.14;54.94
47763;BME280;33526;42.690;23.322;2023-03-14T01:22:21;95193.53;;;3.15;54.84
47763;BME280;33526;42.690;23.322;2023-03-14T01:24:47;95195.75;;;3.00;54.59
47763;BME280;33526;42.690;23.322;2023-03-14T01:27:12;95203.97;;;3.03;55.24
47763;BME280;33526;42.690;23.322;2023-03-14T01:29:37;95197.78;;;2.96;55.92
47763;BME280;33526;42.690;23.322;2023-03-14T01:32:03;95193.75;;;3.00;55.29
47763;BME280;33526;42.690;23.322;2023-03-14T01:34:28;95190.22;;;3.00;55.49
47763;BME280;33526;42.690;23.322;2023-03-14T01:36:53;95184.38;;;2.94;54.87
47763;BME280;33526;42.690;23.322;2023-03-14T01:39:19;95179.16;;;3.00;55.42
47763;BME280;33526;42.690;23.322;2023-03-14T01:41:44;95188.78;;;2.88;55.92
47763;BME280;33526;42.690;23.322;2023-03-14T01:44:12;95182.44;;;2.91;55.58
47763;BME280;33526;42.690;23.322;2023-03-14T01:46:38;95186.78;;;2.92;55.96
47763;BME280;33526;42.690;23.322;2023-03-14T01:56:43;95172.91;;;2.68;57.41
47763;BME280;33526;42.690;23.322;2023-03-14T01:59:11;95172.03;;;2.72;56.91
47763;BME280;33526;42.690;23.322;2023-03-14T02:01:36;95167.28;;;2.76;56.34
47763;BME280;33526;42.690;23.322;2023-03-14T02:04:04;95168.97;;;2.66;56.65
47763;BME280;33526;42.690;23.322;2023-03-14T02:09:15;95169.06;;;2.59;57.84
47763;BME280;33526;42.690;23.322;2023-03-14T02:11:40;95166.75;;;2.54;58.30
47763;BME280;33526;42.690;23.322;2023-03-14T02:14:05;95155.00;;;2.49;58.57
47763;BME280;33526;42.690;23.322;2023-03-14T02:16:32;95164.63;;;2.38;60.07
47763;BME280;33526;42.690;23.322;2023-03-14T02:18:59;95152.81;;;2.34;60.58
47763;BME280;33526;42.690;23.322;2023-03-14T02:21:33;95159.91;;;2.35;61.37
47763;BME280;33526;42.690;23.322;2023-03-14T02:27:05;95158.41;;;2.26;61.67
47763;BME280;33526;42.690;23.322;2023-03-14T02:29:31;95162.41;;;2.25;61.48
47763;BME280;33526;42.690;23.322;2023-03-14T02:31:58;95154.44;;;2.31;61.99
47763;BME280;33526;42.690;23.322;2023-03-14T02:34:24;95150.81;;;2.38;62.41
47763;BME280;33526;42.690;23.322;2023-03-14T02:36:50;95160.72;;;2.32;62.63
47763;BME280;33526;42.690;23.322;2023-03-14T02:39:16;95162.75;;;2.27;62.46
47763;BME280;33526;42.690;23.322;2023-03-14T02:41:44;95173.44;;;2.25;62.53
47763;BME280;33526;42.690;23.322;2023-03-14T02:44:11;95166.69;;;2.26;63.69
47763;BME280;33526;42.690;23.322;2023-03-14T02:46:36;95174.16;;;2.29;63.53
47763;BME280;33526;42.690;23.322;2023-03-14T02:49:04;95174.56;;;2.28;63.77
47763;BME280;33526;42.690;23.322;2023-03-14T02:51:30;95174.16;;;2.29;62.78
47763;BME280;33526;42.690;23.322;2023-03-14T02:53:56;95175.06;;;2.19;62.79
47763;BME280;33526;42.690;23.322;2023-03-14T02:56:21;95165.59;;;2.20;62.39
47763;BME280;33526;42.690;23.322;2023-03-14T02:58:47;95175.44;;;2.21;62.80
47763;BME280;33526;42.690;23.322;2023-03-14T03:01:12;95175.88;;;2.20;63.19
47763;BME280;33526;42.690;23.322;2023-03-14T03:03:37;95174.31;;;2.15;63.16
47763;BME280;33526;42.690;23.322;2023-03-14T03:06:03;95166.91;;;2.08;62.02
47763;BME280;33526;42.690;23.322;2023-03-14T03:08:28;95175.97;;;2.09;62.03
47763;BME280;33526;42.690;23.322;2023-03-14T03:10:54;95180.72;;;2.05;61.62
47763;BME280;33526;42.690;23.322;2023-03-14T03:13:21;95176.09;;;1.98;61.47
47763;BME280;33526;42.690;23.322;2023-03-14T03:15:46;95166.66;;;1.96;61.79
47763;BME280;33526;42.690;23.322;2023-03-14T03:18:12;95167.84;;;1.95;61.62
47763;BME280;33526;42.690;23.322;2023-03-14T03:20:37;95164.25;;;1.98;61.95
47763;BME280;33526;42.690;23.322;2023-03-14T03:23:02;95167.81;;;1.98;62.74
47763;BME280;33526;42.690;23.322;2023-03-14T03:25:28;95163.09;;;1.99;63.51
47763;BME280;33526;42.690;23.322;2023-03-14T03:27:54;95164.34;;;1.90;63.05
47763;BME280;33526;42.690;23.322;2023-03-14T03:30:21;95165.19;;;1.87;63.04
47763;BME280;33526;42.690;23.322;2023-03-14T03:32:46;95165.91;;;1.91;63.34
47763;BME280;33526;42.690;23.322;2023-03-14T03:35:12;95159.19;;;1.92;63.00
47763;BME280;33526;42.690;23.322;2023-03-14T03:37:37;95158.81;;;1.90;62.59
47763;BME280;33526;42.690;23.322;2023-03-14T03:40:03;95160.78;;;1.94;62.24
47763;BME280;33526;42.690;23.322;2023-03-14T03:42:32;95160.44;;;1.88;62.01
47763;BME280;33526;42.690;23.322;2023-03-14T03:44:58;95160.88;;;1.83;62.64
47763;BME280;33526;42.690;23.322;2023-03-14T03:47:24;95164.41;;;1.83;62.63
47763;BME280;33526;42.690;23.322;2023-03-14T03:49:49;95171.50;;;1.84;63.30
47763;BME280;33526;42.690;23.322;2023-03-14T03:52:15;95179.50;;;1.71;63.84
47763;BME280;33526;42.690;23.322;2023-03-14T03:54:41;95172.41;;;1.70;64.12
47763;BME280;33526;42.690;23.322;2023-03-14T03:57:06;95174.03;;;1.68;64.30
47763;BME280;33526;42.690;23.322;2023-03-14T03:59:31;95173.59;;;1.73;64.65
47763;BME280;33526;42.690;23.322;2023-03-14T04:01:56;95177.53;;;1.72;64.77
47763;BME280;33526;42.690;23.322;2023-03-14T04:04:22;95172.38;;;1.74;65.04
47763;BME280;33526;42.690;23.322;2023-03-14T04:06:47;95174.03;;;1.68;64.34
47763;BME280;33526;42.690;23.322;2023-03-14T04:09:12;95169.38;;;1.58;64.57
47763;BME280;33526;42.690;23.322;2023-03-14T04:11:38;95176.53;;;1.51;65.26
47763;BME280;33526;42.690;23.322;2023-03-14T04:14:03;95177.72;;;1.50;65.30
47763;BME280;33526;42.690;23.322;2023-03-14T04:16:28;95175.00;;;1.47;65.08
47763;BME280;33526;42.690;23.322;2023-03-14T04:18:56;95170.66;;;1.46;65.52
47763;BME280;33526;42.690;23.322;2023-03-14T04:21:21;95163.25;;;1.39;65.55
47763;BME280;33526;42.690;23.322;2023-03-14T04:23:46;95156.16;;;1.38;65.59
47763;BME280;33526;42.690;23.322;2023-03-14T04:26:12;95153.03;;;1.36;65.52
47763;BME280;33526;42.690;23.322;2023-03-14T04:28:37;95149.94;;;1.30;65.69
47763;BME280;33526;42.690;23.322;2023-03-14T04:31:07;95146.81;;;1.28;65.56
47763;BME280;33526;42.690;23.322;2023-03-14T04:33:33;95142.47;;;1.27;65.41
47763;BME280;33526;42.690;23.322;2023-03-14T04:35:58;95144.06;;;1.28;65.50
47763;BME280;33526;42.690;23.322;2023-03-14T04:38:23;95139.69;;;1.31;65.19
47763;BME280;33526;42.690;23.322;2023-03-14T04:40:49;95139.69;;;1.31;65.14
47763;BME280;33526;42.690;23.322;2023-03-14T04:43:14;95135.78;;;1.32;65.40
47763;BME280;33526;42.690;23.322;2023-03-14T04:45:42;95134.94;;;1.35;65.47
47763;BME280;33526;42.690;23.322;2023-03-14T04:48:09;95129.06;;;1.33;65.28
47763;BME280;33526;42.690;23.322;2023-03-14T04:50:34;95134.94;;;1.35;64.68
47763;BME280;33526;42.690;23.322;2023-03-14T04:53:00;95127.06;;;1.37;64.87
47763;BME280;33526;42.690;23.322;2023-03-14T04:55:25;95124.69;;;1.39;64.63
47763;BME280;33526;42.690;23.322;2023-03-14T04:57:50;95123.03;;;1.45;64.81
47763;BME280;33526;42.690;23.322;2023-03-14T05:00:16;95130.06;;;1.53;64.37
47763;BME280;33526;42.690;23.322;2023-03-14T05:02:43;95122.91;;;1.60;64.20
47763;BME280;33526;42.690;23.322;2023-03-14T05:05:10;95121.69;;;1.64;63.76
47763;BME280;33526;42.690;23.322;2023-03-14T05:07:35;95128.34;;;1.67;64.27
47763;BME280;33526;42.690;23.322;2023-03-14T05:10:00;95122.06;;;1.66;63.88
47763;BME280;33526;42.690;23.322;2023-03-14T05:12:26;95116.94;;;1.65;63.75
47763;BME280;33526;42.690;23.322;2023-03-14T05:14:51;95118.91;;;1.68;63.70
47763;BME280;33526;42.690;23.322;2023-03-14T05:17:16;95119.22;;;1.74;63.82
47763;BME280;33526;42.690;23.322;2023-03-14T05:19:42;95122.25;;;1.86;63.85
47763;BME280;33526;42.690;23.322;2023-03-14T05:22:08;95121.78;;;1.91;63.21
47763;BME280;33526;42.690;23.322;2023-03-14T05:24:33;95115.28;;;2.09;63.52
47763;BME280;33526;42.690;23.322;2023-03-14T05:26:59;95118.53;;;2.35;62.26
47763;BME280;33526;42.690;23.322;2023-03-14T05:29:24;95114.13;;;2.37;61.73
47763;BME280;33526;42.690;23.322;2023-03-14T05:31:49;95125.41;;;2.50;61.57
47763;BME280;33526;42.690;23.322;2023-03-14T05:34:15;95118.69;;;2.51;61.28
47763;BME280;33526;42.690;23.322;2023-03-14T05:36:40;95113.38;;;2.64;61.56
47763;BME280;33526;42.690;23.322;2023-03-14T05:39:05;95114.44;;;2.74;60.81
47763;BME280;33526;42.690;23.322;2023-03-14T05:41:31;95109.91;;;2.87;61.43
47763;BME280;33526;42.690;23.322;2023-03-14T05:43:56;95116.50;;;2.93;61.72
47763;BME280;33526;42.690;23.322;2023-03-14T05:46:21;95113.88;;;3.10;61.40
47763;BME280;33526;42.690;23.322;2023-03-14T05:48:46;95115.22;;;3.25;61.19
47763;BME280;33526;42.690;23.322;2023-03-14T05:51:12;95112.81;;;3.27;61.13
47763;BME280;33526;42.690;23.322;2023-03-14T05:53:37;95119.94;;;3.28;60.37
47763;BME280;33526;42.690;23.322;2023-03-14T05:56:02;95114.38;;;2.77;61.58
47763;BME280;33526;42.690;23.322;2023-03-14T05:58:28;95117.41;;;2.86;61.59
47763;BME280;33526;42.690;23.322;2023-03-14T06:00:53;95115.00;;;2.89;60.77
47763;BME280;33526;42.690;23.322;2023-03-14T06:03:18;95117.56;;;2.76;61.04
47763;BME280;33526;42.690;23.322;2023-03-14T06:05:43;95113.56;;;2.80;61.43
47763;BME280;33526;42.690;23.322;2023-03-14T06:08:09;95108.69;;;2.88;61.39
47763;BME280;33526;42.690;23.322;2023-03-14T06:10:35;95108.38;;;2.82;61.66
47763;BME280;33526;42.690;23.322;2023-03-14T06:13:00;95114.97;;;2.92;61.71
47763;BME280;33526;42.690;23.322;2023-03-14T06:15:26;95107.16;;;2.87;60.91
47763;BME280;33526;42.690;23.322;2023-03-14T06:17:53;95100.63;;;2.74;61.23
47763;BME280;33526;42.690;23.322;2023-03-14T06:20:18;95109.66;;;2.78;61.33
47763;BME280;33526;42.690;23.322;2023-03-14T06:22:43;95112.41;;;2.78;61.14
47763;BME280;33526;42.690;23.322;2023-03-14T06:25:09;95113.50;;;2.84;60.68
47763;BME280;33526;42.690;23.322;2023-03-14T06:27:34;95115.94;;;2.78;60.74
47763;BME280;33526;42.690;23.322;2023-03-14T06:30:00;95112.63;;;2.91;60.89
47763;BME280;33526;42.690;23.322;2023-03-14T06:32:25;95122.78;;;2.97;61.15
47763;BME280;33526;42.690;23.322;2023-03-14T06:34:50;95123.31;;;2.89;60.65
47763;BME280;33526;42.690;23.322;2023-03-14T06:37:16;95117.50;;;3.06;60.17
47763;BME280;33526;42.690;23.322;2023-03-14T06:39:41;95117.94;;;3.05;60.10
47763;BME280;33526;42.690;23.322;2023-03-14T06:42:06;95116.19;;;3.15;59.64
47763;BME280;33526;42.690;23.322;2023-03-14T06:44:32;95112.47;;;3.49;59.60
47763;BME280;33526;42.690;23.322;2023-03-14T06:46:57;95111.94;;;3.57;57.75
47763;BME280;33526;42.690;23.322;2023-03-14T06:49:22;95107.53;;;3.60;58.42
47763;BME280;33526;42.690;23.322;2023-03-14T06:51:48;95107.88;;;3.86;57.83
47763;BME280;33526;42.690;23.322;2023-03-14T06:54:13;95104.69;;;3.87;56.35
47763;BME280;33526;42.690;23.322;2023-03-14T06:56:38;95093.84;;;4.16;56.99
47763;BME280;33526;42.690;23.322;2023-03-14T06:59:04;95096.50;;;4.40;55.47
47763;BME280;33526;42.690;23.322;2023-03-14T07:01:29;95088.25;;;4.56;54.68
47763;BME280;33526;42.690;23.322;2023-03-14T07:03:55;95078.00;;;4.53;53.63
47763;BME280;33526;42.690;23.322;2023-03-14T07:06:20;95080.81;;;4.70;54.36
47763;BME280;33526;42.690;23.322;2023-03-14T07:08:46;95084.50;;;4.83;54.91
47763;BME280;33526;42.690;23.322;2023-03-14T07:11:11;95078.25;;;4.79;55.57
47763;BME280;33526;42.690;23.322;2023-03-14T07:13:40;95085.88;;;4.91;54.50
47763;BME280;33526;42.690;23.322;2023-03-14T07:16:05;95081.38;;;4.81;54.67
47763;BME280;33526;42.690;23.322;2023-03-14T07:18:31;95081.72;;;5.00;56.48
47763;BME280;33526;42.690;23.322;2023-03-14T07:20:56;95086.00;;;5.04;54.23
47763;BME280;33526;42.690;23.322;2023-03-14T07:23:22;95081.47;;;5.10;53.81
47763;BME280;33526;42.690;23.322;2023-03-14T07:25:47;95072.56;;;5.19;54.24
47763;BME280;33526;42.690;23.322;2023-03-14T07:28:12;95083.63;;;4.86;53.62
47763;BME280;33526;42.690;23.322;2023-03-14T07:30:38;95072.66;;;4.63;53.85
47763;BME280;33526;42.690;23.322;2023-03-14T07:33:03;95073.53;;;4.59;53.48
47763;BME280;33526;42.690;23.322;2023-03-14T07:35:28;95069.31;;;4.88;53.53
47763;BME280;33526;42.690;23.322;2023-03-14T07:37:54;95069.25;;;4.91;53.08
47763;BME280;33526;42.690;23.322;2023-03-14T07:40:19;95059.13;;;5.01;53.40
47763;BME280;33526;42.690;23.322;2023-03-14T07:42:46;95057.47;;;5.20;52.77
47763;BME280;33526;42.690;23.322;2023-03-14T07:45:11;95053.47;;;5.38;51.83
47763;BME280;33526;42.690;23.322;2023-03-14T07:47:36;95052.72;;;5.21;51.11
47763;BME280;33526;42.690;23.322;2023-03-14T07:50:03;95053.00;;;5.10;51.56
47763;BME280;33526;42.690;23.322;2023-03-14T07:52:28;95045.53;;;5.23;51.21
47763;BME280;33526;42.690;23.322;2023-03-14T07:54:54;95057.28;;;5.27;50.78
47763;BME280;33526;42.690;23.322;2023-03-14T07:57:19;95050.53;;;5.45;50.46
47763;BME280;33526;42.690;23.322;2023-03-14T07:59:44;95051.72;;;5.60;50.63
47763;BME280;33526;42.690;23.322;2023-03-14T08:02:10;95047.19;;;5.66;49.75
47763;BME280;33526;42.690;23.322;2023-03-14T08:04:36;95040.81;;;5.53;49.41
47763;BME280;33526;42.690;23.322;2023-03-14T08:07:02;95047.38;;;5.59;49.47
47763;BME280;33526;42.690;23.322;2023-03-14T08:09:27;95042.56;;;5.76;49.03
47763;BME280;33526;42.690;23.322;2023-03-14T08:11:52;95040.88;;;5.95;48.49
47763;BME280;33526;42.690;23.322;2023-03-14T08:14:17;95045.84;;;6.17;48.16
47763;BME280;33526;42.690;23.322;2023-03-14T08:16:43;95039.63;;;6.25;48.06
47763;BME280;33526;42.690;23.322;2023-03-14T08:19:08;95037.00;;;6.35;47.52
47763;BME280;33526;42.690;23.322;2023-03-14T08:21:33;95043.22;;;6.39;47.37
47763;BME280;33526;42.690;23.322;2023-03-14T08:23:59;95051.56;;;6.51;46.66
47763;BME280;33526;42.690;23.322;2023-03-14T08:26:25;95038.03;;;6.54;46.53
47763;BME280;33526;42.690;23.322;2023-03-14T08:28:50;95033.25;;;6.54;46.25
47763;BME280;33526;42.690;23.322;2023-03-14T08:31:16;95040.44;;;6.51;45.83
47763;BME280;33526;42.690;23.322;2023-03-14T08:33:42;95027.34;;;6.65;45.48
47763;BME280;33526;42.690;23.322;2023-03-14T08:36:07;95030.03;;;6.81;45.68
47763;BME280;33526;42.690;23.322;2023-03-14T08:38:32;95027.03;;;6.76;44.66
47763;BME280;33526;42.690;23.322;2023-03-14T08:40:58;95020.56;;;6.53;44.58
47763;BME280;33526;42.690;23.322;2023-03-14T08:43:24;95011.56;;;6.62;44.76
47763;BME280;33526;42.690;23.322;2023-03-14T08:45:49;95015.13;;;6.49;44.59
47763;BME280;33526;42.690;23.322;2023-03-14T08:48:15;95011.22;;;6.73;44.13
47763;BME280;33526;42.690;23.322;2023-03-14T08:50:40;95008.00;;;6.87;43.52
47763;BME280;33526;42.690;23.322;2023-03-14T08:53:05;95000.19;;;6.95;43.18
47763;BME280;33526;42.690;23.322;2023-03-14T08:55:31;94997.16;;;7.15;43.31
47763;BME280;33526;42.690;23.322;2023-03-14T08:57:57;95000.75;;;7.50;43.15
47763;BME280;33526;42.690;23.322;2023-03-14T09:00:22;94989.59;;;7.85;42.29
47763;BME280;33526;42.690;23.322;2023-03-14T09:02:47;94980.97;;;7.92;41.98
47763;BME280;33526;42.690;23.322;2023-03-14T09:05:13;94986.09;;;8.16;41.41
47763;BME280;33526;42.690;23.322;2023-03-14T09:07:38;94979.84;;;8.12;41.67
47763;BME280;33526;42.690;23.322;2023-03-14T09:10:04;94970.47;;;8.18;41.24
47763;BME280;33526;42.690;23.322;2023-03-14T09:12:29;94966.91;;;8.18;40.77
47763;BME280;33526;42.690;23.322;2023-03-14T09:14:55;94958.25;;;8.16;40.71
47763;BME280;33526;42.690;23.322;2023-03-14T09:17:20;94948.81;;;8.45;40.36
47763;BME280;33526;42.690;23.322;2023-03-14T09:19:46;94953.19;;;8.55;40.08
47763;BME280;33526;42.690;23.322;2023-03-14T09:22:12;94944.94;;;8.83;40.62
47763;BME280;33526;42.690;23.322;2023-03-14T09:24:38;94942.19;;;9.10;39.13
47763;BME280;33526;42.690;23.322;2023-03-14T09:27:04;94935.72;;;9.32;40.02
47763;BME280;33526;42.690;23.322;2023-03-14T09:29:29;94935.72;;;9.50;38.36
47763;BME280;33526;42.690;23.322;2023-03-14T09:31:54;94921.59;;;9.45;38.34
47763;BME280;33526;42.690;23.322;2023-03-14T09:34:20;94916.94;;;9.32;39.13
47763;BME280;33526;42.690;23.322;2023-03-14T09:36:45;94914.50;;;9.44;38.66
47763;BME280;33526;42.690;23.322;2023-03-14T09:39:14;94912.78;;;9.46;38.25
47763;BME280;33526;42.690;23.322;2023-03-14T09:41:41;94903.63;;;9.55;38.07
47763;BME280;33526;42.690;23.322;2023-03-14T09:44:14;94906.25;;;9.68;38.08
47763;BME280;33526;42.690;23.322;2023-03-14T09:46:42;94898.63;;;9.77;37.27
47763;BME280;33526;42.690;23.322;2023-03-14T09:49:13;94898.13;;;9.88;37.36
47763;BME280;33526;42.690;23.322;2023-03-14T09:51:41;94893.50;;;9.85;36.90
47763;BME280;33526;42.690;23.322;2023-03-14T09:54:13;94883.28;;;9.82;36.42
47763;BME280;33526;42.690;23.322;2023-03-14T09:56:48;94882.28;;;10.04;36.74
47763;BME280;33526;42.690;23.322;2023-03-14T09:59:45;94875.16;;;10.12;37.19
47763;BME280;33526;42.690;23.322;2023-03-14T10:02:16;94874.13;;;10.43;35.67
47763;BME280;33526;42.690;23.322;2023-03-14T10:04:44;94864.72;;;10.55;35.89
47763;BME280;33526;42.690;23.322;2023-03-14T10:07:12;94866.28;;;10.56;34.58
47763;BME280;33526;42.690;23.322;2023-03-14T10:09:39;94860.09;;;10.52;34.71
47763;BME280;33526;42.690;23.322;2023-03-14T10:12:07;94859.88;;;10.65;34.40
47763;BME280;33526;42.690;23.322;2023-03-14T10:14:34;94850.38;;;10.71;34.42
47763;BME280;33526;42.690;23.322;2023-03-14T10:17:09;94852.13;;;10.84;34.45
47763;BME280;33526;42.690;23.322;2023-03-14T10:19:52;94833.31;;;11.08;33.89
47763;BME280;33526;42.690;23.322;2023-03-14T10:22:21;94824.13;;;10.93;34.98
47763;BME280;33526;42.690;23.322;2023-03-14T10:24:55;94808.63;;;11.07;35.61
47763;BME280;33526;42.690;23.322;2023-03-14T10:27:23;94812.44;;;11.34;35.12
47763;BME280;33526;42.690;23.322;2023-03-14T10:29:57;94811.44;;;11.76;35.27
47763;BME280;33526;42.690;23.322;2023-03-14T10:32:28;94808.06;;;12.01;35.32
47763;BME280;33526;42.690;23.322;2023-03-14T10:35:04;94799.34;;;12.14;35.12
47763;BME280;33526;42.690;23.322;2023-03-14T10:37:30;94793.06;;;11.90;35.29
47763;BME280;33526;42.690;23.322;2023-03-14T10:39:58;94781.19;;;11.95;35.69
47763;BME280;33526;42.690;23.322;2023-03-14T10:42:30;94770.25;;;12.12;35.93
47763;BME280;33526;42.690;23.322;2023-03-14T10:45:03;94775.44;;;12.34;36.09
47763;BME280;33526;42.690;23.322;2023-03-14T10:50:23;94751.59;;;12.44;36.32
47763;BME280;33526;42.690;23.322;2023-03-14T10:52:49;94739.72;;;12.70;36.07
47763;BME280;33526;42.690;23.322;2023-03-14T10:55:18;94741.03;;;12.54;36.07
47763;BME280;33526;42.690;23.322;2023-03-14T11:00:42;94732.91;;;12.56;36.06
47763;BME280;33526;42.690;23.322;2023-03-14T11:03:13;94724.69;;;12.73;35.95
47763;BME280;33526;42.690;23.322;2023-03-14T11:05:46;94711.88;;;12.66;36.06
47763;BME280;33526;42.690;23.322;2023-03-14T11:34:35;94639.25;;;13.90;34.68
47763;BME280;33526;42.690;23.322;2023-03-14T11:37:14;94634.47;;;13.96;34.65
47763;BME280;33526;42.690;23.322;2023-03-14T11:39:47;94629.91;;;14.04;34.07
47763;BME280;33526;42.690;23.322;2023-03-14T11:42:22;94621.19;;;13.96;33.95
47763;BME280;33526;42.690;23.322;2023-03-14T11:44:50;94618.94;;;14.06;34.32
47763;BME280;33526;42.690;23.322;2023-03-14T11:47:20;94615.44;;;14.23;34.05
47763;BME280;33526;42.690;23.322;2023-03-14T11:54:58;94598.88;;;14.36;33.30
47763;BME280;33526;42.690;23.322;2023-03-14T11:57:29;94593.03;;;14.45;33.00
47763;BME280;33526;42.690;23.322;2023-03-14T12:00:20;94586.13;;;14.46;32.76
47763;BME280;33526;42.690;23.322;2023-03-14T12:08:47;94574.41;;;14.53;32.69
47763;BME280;33526;42.690;23.322;2023-03-14T12:13:45;94563.72;;;14.75;32.60
47763;BME280;33526;42.690;23.322;2023-03-14T12:18:49;94548.13;;;14.68;32.67
47763;BME280;33526;42.690;23.322;2023-03-14T12:21:14;94537.38;;;14.72;32.13
47763;BME280;33526;42.690;23.322;2023-03-14T12:23:47;94539.19;;;14.75;32.22
47763;BME280;33526;42.690;23.322;2023-03-14T12:34:03;94517.69;;;15.34;31.53
47763;BME280;33526;42.690;23.322;2023-03-14T12:50:07;94492.88;;;14.99;30.58
47763;BME280;33526;42.690;23.322;2023-03-14T12:53:10;94492.63;;;15.02;31.34
47763;BME280;33526;42.690;23.322;2023-03-14T12:55:48;94483.41;;;15.13;31.19
47763;BME280;33526;42.690;23.322;2023-03-14T13:00:38;94474.19;;;15.18;30.54
47763;BME280;33526;42.690;23.322;2023-03-14T13:05:51;94458.50;;;15.51;30.83
47763;BME280;33526;42.690;23.322;2023-03-14T13:08:31;94457.22;;;15.46;30.25
47763;BME280;33526;42.690;23.322;2023-03-14T13:10:57;94458.50;;;15.51;30.47
47763;BME280;33526;42.690;23.322;2023-03-14T13:13:24;94449.75;;;15.60;30.00
47763;BME280;33526;42.690;23.322;2023-03-14T13:15:56;94449.75;;;15.60;29.87
47763;BME280;33526;42.690;23.322;2023-03-14T13:18:38;94417.63;;;15.16;29.57
47763;BME280;33526;42.690;23.322;2023-03-14T13:21:11;94439.56;;;15.46;30.62
47763;BME280;33526;42.690;23.322;2023-03-14T13:23:37;94432.31;;;15.79;29.50
47763;BME280;33526;42.690;23.322;2023-03-14T13:26:03;94425.16;;;15.78;28.99
47763;BME280;33526;42.690;23.322;2023-03-14T13:28:31;94417.41;;;15.84;29.05
47763;BME280;33526;42.690;23.322;2023-03-14T13:31:00;94414.56;;;15.90;29.13
47763;BME280;33526;42.690;23.322;2023-03-14T13:33:26;94405.34;;;15.89;28.65
47763;BME280;33526;42.690;23.322;2023-03-14T13:35:56;94404.09;;;15.90;29.14
47763;BME280;33526;42.690;23.322;2023-03-14T13:38:23;94404.56;;;15.94;28.87
47763;BME280;33526;42.690;23.322;2023-03-14T13:40:49;94394.25;;;16.02;28.96
47763;BME280;33526;42.690;23.322;2023-03-14T13:48:15;94371.38;;;15.76;28.71
47763;BME280;33526;42.690;23.322;2023-03-14T13:50:51;94366.22;;;15.80;28.77
47763;BME280;33526;42.690;23.322;2023-03-14T13:53:18;94364.63;;;15.90;28.70
47763;BME280;33526;42.690;23.322;2023-03-14T13:55:43;94361.50;;;15.99;28.77
47763;BME280;33526;42.690;23.322;2023-03-14T13:58:11;94353.50;;;16.03;28.50
47763;BME280;33526;42.690;23.322;2023-03-14T14:00:37;94352.25;;;16.04;28.63
47763;BME280;33526;42.690;23.322;2023-03-14T14:03:02;94341.25;;;15.95;28.27
47763;BME280;33526;42.690;23.322;2023-03-14T14:05:28;94343.63;;;15.85;28.78
47763;BME280;33526;42.690;23.322;2023-03-14T14:07:55;94327.66;;;15.99;29.48
47763;BME280;33526;42.690;23.322;2023-03-14T14:10:21;94334.06;;;16.00;28.78
47763;BME280;33526;42.690;23.322;2023-03-14T14:13:00;94326.72;;;15.85;28.48
47763;BME280;33526;42.690;23.322;2023-03-14T14:15:27;94324.94;;;15.82;28.27
47763;BME280;33526;42.690;23.322;2023-03-14T14:20:29;94316.16;;;15.92;28.49
47763;BME280;33526;42.690;23.322;2023-03-14T14:22:59;94312.06;;;15.93;29.05
47763;BME280;33526;42.690;23.322;2023-03-14T14:25:26;94295.97;;;15.88;28.69
47763;BME280;33526;42.690;23.322;2023-03-14T14:27:51;94297.03;;;15.79;28.36
47763;BME280;33526;42.690;23.322;2023-03-14T14:32:42;94291.63;;;15.86;28.77
47763;BME280;33526;42.690;23.322;2023-03-14T14:35:09;94284.25;;;15.78;28.44